Terminal Aerodrome Forecast
Issued by NWS

Home | Current Version | Previous Version | Text Only | Print | Product List | Glossary On
Versions: 1 2 3 4 5 6 7 8 9 10 11 12 13 14 15
000
FTUS45 KBOI 162320
TAFBKE
TAF
KBKE 162320Z 1700/1724 07006KT P6SM SCT080 BKN120
     FM171700 13005KT P6SM OVC100
     FM172100 13008KT P6SM VCSH OVC050=

USA.gov is the U.S. government's official web portal to all federal, state and local government web resources and services.